Fitzgerald, Georgia
Current Conditions -  °F | °C
As of 8:35 AM on Saturday 20 Dec 2014 (Local Time) from KFZG Reporting Station
Overcast Overcast  
Wind Chill: 50°   Ceiling: 4000
Heat Index: 50°   Visibility: 7mi
Dew Point: 48°   Wind: 3mph
Humidity: 92%   Direction: 20°NNE
Pressure: 30.2"   Gusts: NA
Location:  31.72°N, 83.25°W
Report Text: KFZG 201335Z AUTO 02003KT 7SM BKN040 OVC060 10/09 A3020 RMK AO2 T01020090
Loading
Personal Weather Stations






























Interactive Weather Map New forecast layout! Learn more

10-Day Weather Forecast

Advertisements
Track Severe Weather on mobile